Terminal Aerodrome Forecast
Issued by NWS Amarillo, TX

Current Version | Previous Version | Text Only | Print | Product List | Glossary On
Versions: 1 2 3 4 5 6 7 8 9 10 11 12 13 14 15
061
FTUS44 KAMA 241120
TAFDHT
TAF
KDHT 241120Z 2412/2512 15011KT P6SM SCT080
     FM242100 13010KT P6SM VCSH BKN090
     FM250200 17005KT P6SM SCT100=

USA.gov is the U.S. government's official web portal to all federal, state and local government web resources and services.